Terminal Aerodrome Forecast
Issued by NWS Greer, SC

Current Version | Previous Version | Text Only | Print | Product List | Glossary On
Versions: 1 2 3 4 5 6 7 8 9 10 11 12 13 14 15
000
FTUS42 KGSP 312100 AAA
TAFAVL
TAF AMD
KAVL 312100Z 3121/0118 34012KT P6SM VCSH OVC045
     FM010200 32014G25KT P6SM -SHRA OVC035
     FM010700 32017G30KT 5SM SHRASN OVC025
     FM010900 32017G30KT 3SM -SHSN OVC015
     FM011300 32022G38KT 2SM -SHSN OVC010=

USA.gov is the U.S. government's official web portal to all federal, state and local government web resources and services.